Time;durP1;ratioP1;P1;durP2;ratioP2;P2;SDS_P1;SDS_P2;PMS_P1;PMS_P2;Temp;Humidity;BMP_temperature;BMP_pressure;BME280_temperature;BME280_humidity;BME280_pressure;Samples;Min_cycle;Max_cycle;Signal;HPM_P1;HPM_P2
2024/03/31 09:34:57;;;;;;;3.70;2.63;;;25.00;59.20;;;;;;4994130;28;20455;-86
2024/03/31 09:37:23;;;;;;;4.70;3.33;;;25.00;59.40;;;;;;4981882;28;20451;-86
2024/03/31 09:39:50;;;;;;;6.63;3.30;;;25.00;59.40;;;;;;4996424;28;20962;-84
2024/03/31 09:42:15;;;;;;;4.90;3.17;;;25.10;59.70;;;;;;4996519;28;20631;-84
2024/03/31 09:44:44;;;;;;;3.90;2.47;;;25.20;59.50;;;;;;4996236;28;20483;-83
2024/03/31 09:47:18;;;;;;;3.57;3.00;;;25.20;59.70;;;;;;4996466;28;20196;-84
2024/03/31 09:49:59;;;;;;;5.27;2.90;;;25.40;59.70;;;;;;4996408;28;20451;-83
2024/03/31 09:52:31;;;;;;;3.87;2.53;;;25.50;59.60;;;;;;4996119;28;20451;-83
2024/03/31 09:55:02;;;;;;;4.40;2.73;;;25.60;59.40;;;;;;4996569;28;20440;-83
2024/03/31 09:57:32;;;;;;;3.30;2.67;;;25.80;59.40;;;;;;4996537;28;20443;-85
2024/03/31 10:00:01;;;;;;;7.50;2.90;;;25.90;59.40;;;;;;4996551;28;20440;-83
2024/03/31 10:02:28;;;;;;;4.53;2.83;;;26.00;59.30;;;;;;4995538;28;20464;-84
2024/03/31 10:05:01;;;;;;;3.93;2.40;;;26.00;59.30;;;;;;4995667;28;20452;-84
2024/03/31 10:07:30;;;;;;;6.90;2.97;;;26.10;59.30;;;;;;4995592;28;20451;-84
2024/03/31 10:09:57;;;;;;;5.33;2.20;;;26.10;59.20;;;;;;4995479;28;20539;-85
2024/03/31 10:12:25;;;;;;;3.83;2.40;;;26.20;59.20;;;;;;4995647;28;20451;-84
2024/03/31 10:14:53;;;;;;;3.47;2.43;;;26.30;59.20;;;;;;4995370;28;20509;-84
2024/03/31 10:17:19;;;;;;;2.60;1.70;;;26.40;59.20;;;;;;4995951;28;20432;-84
2024/03/31 10:19:47;;;;;;;4.20;2.57;;;26.40;59.10;;;;;;4996096;28;20441;-85
2024/03/31 10:22:15;;;;;;;3.77;2.07;;;26.50;59.10;;;;;;4996144;28;20459;-84
2024/03/31 10:24:45;;;;;;;2.80;2.27;;;26.50;59.10;;;;;;4996064;28;20588;-83
2024/03/31 10:27:10;;;;;;;3.27;2.40;;;26.50;59.00;;;;;;4995992;28;20815;-84
2024/03/31 10:29:38;;;;;;;2.43;1.87;;;26.60;59.00;;;;;;4996241;28;20440;-83
2024/03/31 10:32:04;;;;;;;3.80;2.00;;;26.60;59.00;;;;;;4995808;28;20220;-84
2024/03/31 10:34:30;;;;;;;5.93;2.80;;;26.50;59.00;;;;;;4995860;28;20494;-84
2024/03/31 10:36:56;;;;;;;4.63;2.30;;;26.60;59.00;;;;;;5011895;28;20475;-83
2024/03/31 10:39:24;;;;;;;4.17;2.10;;;26.60;59.00;;;;;;5015403;28;20450;-82
2024/03/31 10:41:52;;;;;;;7.77;2.50;;;26.70;59.00;;;;;;5015527;28;20203;-83
2024/03/31 10:44:21;;;;;;;6.13;2.57;;;26.60;59.00;;;;;;5015495;28;20447;-84
2024/03/31 10:46:47;;;;;;;2.23;1.70;;;26.60;59.10;;;;;;5015373;28;20798;-84
2024/03/31 10:49:13;;;;;;;2.70;1.57;;;26.60;59.10;;;;;;5014871;28;20449;-84
2024/03/31 10:51:41;;;;;;;4.17;2.00;;;26.70;59.20;;;;;;5015119;28;20435;-84
2024/03/31 10:54:36;;;;;;;2.87;1.97;;;26.70;59.20;;;;;;5015076;28;20993;-83
2024/03/31 10:57:10;;;;;;;3.50;1.70;;;26.70;59.30;;;;;;5015375;28;20462;-84
2024/03/31 10:59:39;;;;;;;2.27;1.60;;;26.70;59.30;;;;;;5015683;28;20450;-83
2024/03/31 11:02:15;;;;;;;3.10;1.80;;;26.70;59.30;;;;;;5014988;28;20503;-84
2024/03/31 11:04:42;;;;;;;2.57;1.90;;;26.80;59.30;;;;;;5015105;28;20467;-83
2024/03/31 11:07:12;;;;;;;7.03;2.47;;;26.80;59.30;;;;;;5015403;28;20431;-84
2024/03/31 11:09:39;;;;;;;4.13;2.10;;;26.80;59.30;;;;;;5015123;28;20435;-84
2024/03/31 11:12:07;;;;;;;2.27;1.73;;;26.90;59.30;;;;;;5036547;28;20427;-84
2024/03/31 11:14:34;;;;;;;2.67;2.00;;;26.90;59.30;;;;;;5037400;28;20475;-84
2024/03/31 11:17:01;;;;;;;2.70;1.73;;;26.90;59.20;;;;;;5019560;28;20431;-84
2024/03/31 11:19:28;;;;;;;2.27;1.60;;;27.00;59.20;;;;;;5014329;28;20439;-83
2024/03/31 11:22:02;;;;;;;3.23;1.97;;;26.90;59.20;;;;;;5015126;28;20439;-83
2024/03/31 11:24:29;;;;;;;2.43;1.40;;;26.90;59.30;;;;;;5015063;28;20577;-85
2024/03/31 11:26:56;;;;;;;3.20;1.70;;;26.90;59.40;;;;;;5014644;28;20435;-83
2024/03/31 11:29:24;;;;;;;3.27;2.20;;;26.90;59.40;;;;;;5014712;28;20473;-83
2024/03/31 11:31:50;;;;;;;2.20;1.50;;;27.00;59.40;;;;;;5014893;28;20462;-84
2024/03/31 11:34:18;;;;;;;3.57;2.00;;;27.00;59.50;;;;;;5014588;28;20478;-83
2024/03/31 11:36:44;;;;;;;2.93;1.60;;;27.00;59.50;;;;;;5013686;28;20595;-84
2024/03/31 11:39:13;;;;;;;3.07;1.60;;;27.00;59.50;;;;;;5013538;28;20457;-84
2024/03/31 11:41:39;;;;;;;4.00;2.03;;;27.00;59.40;;;;;;5013499;28;20446;-84
2024/03/31 11:44:06;;;;;;;2.23;1.60;;;27.10;59.40;;;;;;5013724;28;20444;-84
2024/03/31 11:46:35;;;;;;;2.50;1.53;;;27.20;59.40;;;;;;5013282;28;20451;-84
2024/03/31 11:49:02;;;;;;;2.23;1.30;;;27.20;59.40;;;;;;5013403;28;20475;-84
2024/03/31 11:51:29;;;;;;;3.03;1.87;;;27.20;59.30;;;;;;5013264;28;20431;-83
2024/03/31 11:53:56;;;;;;;3.20;1.40;;;27.20;59.40;;;;;;5013287;28;20486;-84
2024/03/31 11:56:23;;;;;;;2.63;1.67;;;27.20;59.30;;;;;;5013595;28;20940;-84
2024/03/31 11:58:49;;;;;;;2.53;1.70;;;27.20;59.40;;;;;;5012900;28;20446;-83
2024/03/31 12:01:18;;;;;;;2.57;1.60;;;27.20;59.40;;;;;;5012955;28;20444;-84
2024/03/31 12:03:54;;;;;;;2.77;1.77;;;27.20;59.40;;;;;;5012957;28;20463;-84
2024/03/31 12:06:21;;;;;;;2.57;1.60;;;27.10;59.30;;;;;;5013282;28;20954;-84
2024/03/31 12:08:47;;;;;;;2.90;1.63;;;27.10;59.40;;;;;;5013116;28;20439;-84
2024/03/31 12:11:13;;;;;;;3.77;1.60;;;27.00;59.90;;;;;;5013168;28;20431;-83
2024/03/31 12:13:40;;;;;;;2.17;1.47;;;27.00;59.40;;;;;;5013547;28;20474;-84
2024/03/31 12:16:06;;;;;;;2.50;1.67;;;27.00;59.50;;;;;;5013089;28;20192;-83
2024/03/31 12:18:33;;;;;;;3.70;2.20;;;26.90;59.50;;;;;;5013303;28;20531;-84
2024/03/31 12:21:02;;;;;;;2.27;1.37;;;26.90;59.50;;;;;;5013341;28;20431;-83
2024/03/31 12:23:29;;;;;;;2.10;1.40;;;26.90;59.50;;;;;;5012964;28;20443;-84
2024/03/31 12:25:55;;;;;;;2.67;1.40;;;26.80;59.50;;;;;;5013225;28;20800;-85
2024/03/31 12:28:22;;;;;;;4.40;2.43;;;26.80;60.30;;;;;;5012975;28;20984;-84
2024/03/31 12:30:49;;;;;;;2.20;1.60;;;26.70;59.60;;;;;;5012920;28;20462;-83
2024/03/31 12:33:14;;;;;;;2.87;1.43;;;26.70;59.70;;;;;;5012785;28;20982;-84
2024/03/31 12:35:41;;;;;;;2.10;1.67;;;26.70;59.70;;;;;;4976446;28;1054366;-84
2024/03/31 12:38:08;;;;;;;3.80;1.60;;;26.60;59.70;;;;;;5013995;28;20292;-84
2024/03/31 12:40:35;;;;;;;2.47;1.40;;;26.50;59.70;;;;;;5013679;28;20442;-84
2024/03/31 12:43:01;;;;;;;2.00;1.40;;;26.50;59.80;;;;;;5013636;28;20447;-84
2024/03/31 12:45:27;;;;;;;2.80;1.50;;;26.50;59.90;;;;;;5013768;28;20439;-84
2024/03/31 12:47:58;;;;;;;1.80;1.27;;;26.50;59.90;;;;;;5013816;28;20200;-84
2024/03/31 12:50:25;;;;;;;2.73;1.30;;;26.50;59.80;;;;;;5013703;28;20446;-84
2024/03/31 12:52:50;;;;;;;2.47;1.57;;;26.50;59.90;;;;;;5013782;28;20518;-84
2024/03/31 12:55:19;;;;;;;2.20;1.20;;;26.50;59.90;;;;;;5013565;28;20537;-84
2024/03/31 12:57:45;;;;;;;3.67;1.50;;;26.50;60.00;;;;;;5013328;28;20197;-83
2024/03/31 13:00:12;;;;;;;4.47;1.20;;;26.40;59.90;;;;;;5013384;28;20478;-84
2024/03/31 13:02:41;;;;;;;2.40;1.30;;;26.40;59.90;;;;;;5013623;28;20459;-85
2024/03/31 13:05:08;;;;;;;3.40;1.70;;;26.40;59.90;;;;;;5013304;28;20474;-84
2024/03/31 13:07:36;;;;;;;2.00;1.23;;;26.40;59.90;;;;;;5014442;28;20438;-84
2024/03/31 13:10:04;;;;;;;2.40;1.57;;;26.30;59.80;;;;;;5013377;28;20513;-84
2024/03/31 13:12:31;;;;;;;2.70;1.30;;;26.40;59.90;;;;;;5016752;28;20434;-84
2024/03/31 13:14:58;;;;;;;2.80;1.50;;;26.40;60.00;;;;;;5016907;28;20570;-84
2024/03/31 13:17:24;;;;;;;3.30;1.27;;;26.30;59.90;;;;;;5016853;28;20446;-84
2024/03/31 13:19:51;;;;;;;2.20;1.33;;;26.30;59.90;;;;;;5016979;28;20439;-84
2024/03/31 13:22:16;;;;;;;1.93;1.23;;;26.40;60.10;;;;;;5017393;28;20794;-84
2024/03/31 13:24:43;;;;;;;2.40;1.40;;;26.40;60.10;;;;;;5016531;28;20439;-84
2024/03/31 13:27:09;;;;;;;2.83;1.30;;;26.40;60.10;;;;;;5016886;28;20198;-84
2024/03/31 13:29:37;;;;;;;2.10;1.20;;;26.40;60.00;;;;;;5016645;28;20438;-83
2024/03/31 13:32:03;;;;;;;1.83;1.20;;;26.40;60.00;;;;;;5016661;28;20216;-84
2024/03/31 13:34:30;;;;;;;2.87;1.33;;;26.40;60.00;;;;;;5016814;28;20483;-85
2024/03/31 13:36:55;;;;;;;1.83;1.20;;;26.40;59.90;;;;;;5016376;28;20467;-84
2024/03/31 13:39:22;;;;;;;1.83;1.03;;;26.50;59.90;;;;;;5016384;28;20447;-83
2024/03/31 13:41:48;;;;;;;3.50;1.60;;;26.50;59.90;;;;;;5016584;28;20196;-83
2024/03/31 13:44:15;;;;;;;2.03;1.20;;;26.50;59.80;;;;;;5016763;28;20443;-83
2024/03/31 13:46:42;;;;;;;2.20;1.50;;;26.40;59.80;;;;;;5016733;28;20619;-85
2024/03/31 13:49:08;;;;;;;1.87;1.20;;;26.40;59.80;;;;;;5016321;28;20525;-85
2024/03/31 13:51:34;;;;;;;2.33;0.93;;;26.50;59.90;;;;;;5016318;28;20439;-84
2024/03/31 13:54:01;;;;;;;3.40;1.63;;;26.30;59.90;;;;;;5016440;28;20485;-84
2024/03/31 13:56:27;;;;;;;2.00;1.10;;;26.30;59.80;;;;;;5016590;28;20570;-85
2024/03/31 13:58:53;;;;;;;2.20;1.20;;;26.30;59.90;;;;;;5016301;28;20442;-84
2024/03/31 14:01:19;;;;;;;2.10;1.20;;;26.30;59.90;;;;;;5016372;28;20204;-84
2024/03/31 14:03:47;;;;;;;1.70;1.10;;;26.30;59.90;;;;;;5015741;28;20435;-84
2024/03/31 14:06:13;;;;;;;2.63;1.20;;;26.30;60.00;;;;;;5016150;28;20203;-85
2024/03/31 14:08:39;;;;;;;3.27;1.40;;;26.30;60.00;;;;;;5016257;28;20439;-84
2024/03/31 14:11:06;;;;;;;2.77;1.10;;;26.20;60.00;;;;;;5016622;28;20203;-84
2024/03/31 14:13:32;;;;;;;2.27;1.37;;;26.20;60.00;;;;;;5016093;28;20478;-84
2024/03/31 14:15:59;;;;;;;3.30;1.10;;;26.20;60.00;;;;;;5015879;28;20435;-84
2024/03/31 14:18:25;;;;;;;1.93;1.00;;;26.20;60.00;;;;;;5016112;28;20450;-85
2024/03/31 14:20:52;;;;;;;1.90;1.30;;;26.20;60.00;;;;;;5020636;28;20418;-84
2024/03/31 14:23:19;;;;;;;1.70;1.20;;;26.20;60.00;;;;;;5038521;28;20462;-84
2024/03/31 14:25:45;;;;;;;1.93;1.00;;;26.10;60.00;;;;;;5039915;28;20471;-83
2024/03/31 14:28:11;;;;;;;1.93;1.20;;;26.10;60.00;;;;;;5015945;28;20478;-84
2024/03/31 14:30:37;;;;;;;1.80;1.00;;;26.10;60.00;;;;;;5015631;28;20208;-83
2024/03/31 14:33:04;;;;;;;3.30;1.33;;;26.10;60.00;;;;;;5015774;28;20451;-83
2024/03/31 14:35:31;;;;;;;3.13;1.57;;;26.20;60.00;;;;;;5015398;28;20228;-84
2024/03/31 14:38:01;;;;;;;2.00;1.17;;;26.10;59.90;;;;;;5015621;28;20518;-84
2024/03/31 14:40:26;;;;;;;1.90;1.00;;;26.10;59.90;;;;;;5015626;28;20490;-83
2024/03/31 14:42:53;;;;;;;1.80;1.10;;;26.10;60.00;;;;;;5015226;28;20950;-84
2024/03/31 14:45:19;;;;;;;1.80;0.97;;;26.10;60.00;;;;;;5015348;28;20211;-83
2024/03/31 14:47:46;;;;;;;3.20;1.53;;;26.10;60.00;;;;;;5015352;28;21005;-83
2024/03/31 14:50:11;;;;;;;2.63;1.37;;;26.10;60.00;;;;;;5015054;28;20196;-84
2024/03/31 14:52:38;;;;;;;1.70;0.97;;;26.00;60.00;;;;;;5015231;28;20949;-84
2024/03/31 14:55:06;;;;;;;2.43;1.10;;;26.00;60.10;;;;;;5014868;28;20220;-84
2024/03/31 14:57:32;;;;;;;1.93;1.10;;;26.00;60.10;;;;;;5014808;28;20526;-85
2024/03/31 15:00:03;;;;;;;2.67;1.20;;;26.00;60.10;;;;;;5014830;28;20558;-84
2024/03/31 15:02:29;;;;;;;2.43;1.00;;;26.00;60.00;;;;;;5014744;28;20470;-84
2024/03/31 15:04:55;;;;;;;3.30;1.40;;;25.90;60.10;;;;;;5015057;28;20436;-84
2024/03/31 15:07:22;;;;;;;1.80;1.10;;;25.90;60.20;;;;;;5014810;28;20823;-84
2024/03/31 15:09:48;;;;;;;2.07;1.20;;;25.90;60.30;;;;;;5014677;28;20203;-84
2024/03/31 15:12:16;;;;;;;2.20;1.17;;;25.80;60.10;;;;;;5014799;28;20806;-83
2024/03/31 15:14:41;;;;;;;2.23;1.00;;;25.80;60.10;;;;;;5014389;28;20695;-84
2024/03/31 15:17:08;;;;;;;2.40;1.10;;;25.80;60.10;;;;;;5014631;28;20447;-84
2024/03/31 15:19:34;;;;;;;1.60;1.10;;;25.80;60.10;;;;;;5014968;28;20197;-83
2024/03/31 15:22:01;;;;;;;1.90;1.00;;;25.80;60.00;;;;;;5014615;28;20469;-83
2024/03/31 15:24:26;;;;;;;2.97;1.13;;;25.80;60.00;;;;;;5014754;28;20932;-83
2024/03/31 15:26:53;;;;;;;2.73;1.27;;;25.80;59.90;;;;;;5014564;28;20439;-83
2024/03/31 15:29:20;;;;;;;1.90;1.10;;;25.80;59.90;;;;;;5014774;28;20219;-84
2024/03/31 15:31:48;;;;;;;2.23;1.00;;;25.80;59.90;;;;;;5014396;28;20970;-83
2024/03/31 15:34:14;;;;;;;1.53;0.90;;;25.80;59.90;;;;;;5014161;28;20490;-84
2024/03/31 15:36:40;;;;;;;2.90;1.23;;;25.80;59.80;;;;;;5014096;28;20485;-84
2024/03/31 15:39:06;;;;;;;2.63;1.20;;;25.80;59.90;;;;;;5014468;28;20200;-84
2024/03/31 15:41:33;;;;;;;2.97;1.10;;;25.80;59.90;;;;;;5014568;28;20442;-83
2024/03/31 15:43:59;;;;;;;2.10;1.20;;;25.80;59.90;;;;;;5014499;28;20200;-84
2024/03/31 15:46:27;;;;;;;1.90;1.10;;;25.80;59.90;;;;;;5014378;28;20805;-84
2024/03/31 15:48:52;;;;;;;3.30;1.40;;;25.80;59.90;;;;;;5014445;28;20543;-83
2024/03/31 15:51:19;;;;;;;1.70;0.90;;;25.80;59.80;;;;;;5017878;28;20447;-84
2024/03/31 15:53:45;;;;;;;2.00;0.93;;;25.80;59.80;;;;;;5028691;28;20242;-83
2024/03/31 15:56:12;;;;;;;3.63;1.00;;;25.80;59.70;;;;;;5022765;28;20506;-83
2024/03/31 15:58:39;;;;;;;2.03;1.00;;;25.80;59.70;;;;;;5027795;28;20196;-84
2024/03/31 16:01:06;;;;;;;2.20;1.10;;;25.80;59.70;;;;;;5014377;28;20989;-84
2024/03/31 16:03:33;;;;;;;2.57;1.30;;;25.80;59.70;;;;;;5014021;28;20459;-84
2024/03/31 16:06:00;;;;;;;1.70;1.10;;;25.80;59.60;;;;;;5014133;28;20443;-83
2024/03/31 16:08:25;;;;;;;2.13;1.30;;;25.80;59.60;;;;;;5013905;28;20435;-84
2024/03/31 16:10:55;;;;;;;2.67;0.90;;;25.80;59.60;;;;;;5014054;28;20938;-84
2024/03/31 16:13:21;;;;;;;2.27;1.10;;;25.80;59.60;;;;;;5013943;28;20713;-84
2024/03/31 16:15:48;;;;;;;1.97;1.00;;;25.80;59.60;;;;;;5013926;28;21036;-84
2024/03/31 16:18:14;;;;;;;1.67;1.00;;;25.80;59.60;;;;;;5013972;28;20446;-84
2024/03/31 16:20:42;;;;;;;1.90;1.17;;;25.80;59.60;;;;;;5013714;28;20803;-84
2024/03/31 16:23:07;;;;;;;1.80;1.10;;;25.90;59.60;;;;;;5013480;28;20192;-84
2024/03/31 16:25:41;;;;;;;2.03;1.00;;;25.80;59.60;;;;;;5013852;28;20813;-84
2024/03/31 16:28:06;;;;;;;2.57;1.00;;;25.80;59.50;;;;;;5013774;28;20200;-83
2024/03/31 16:30:37;;;;;;;1.60;0.90;;;25.80;59.50;;;;;;5013397;28;20458;-83
2024/03/31 16:33:03;;;;;;;2.40;1.00;;;25.80;59.50;;;;;;5013607;28;20219;-83
2024/03/31 16:35:30;;;;;;;2.03;1.00;;;25.80;59.50;;;;;;5013500;28;20491;-85
2024/03/31 16:37:57;;;;;;;2.87;0.90;;;25.80;59.60;;;;;;5013319;28;20466;-84
2024/03/31 16:40:24;;;;;;;2.13;1.00;;;25.80;59.60;;;;;;5013955;28;20448;-84
2024/03/31 16:42:50;;;;;;;1.73;1.30;;;25.80;59.50;;;;;;5013671;28;20782;-84
2024/03/31 16:45:17;;;;;;;3.33;1.07;;;25.80;59.50;;;;;;5013533;28;20458;-84
2024/03/31 16:47:43;;;;;;;2.00;1.10;;;25.80;59.50;;;;;;5017265;28;20202;-85
2024/03/31 16:50:10;;;;;;;1.97;1.00;;;25.80;59.50;;;;;;5017577;28;20440;-84
2024/03/31 16:52:36;;;;;;;2.30;1.00;;;25.80;59.50;;;;;;5017901;28;20202;-84
2024/03/31 16:55:04;;;;;;;2.00;1.10;;;25.80;59.50;;;;;;5016990;28;20525;-84
2024/03/31 16:57:30;;;;;;;2.03;1.07;;;25.80;59.50;;;;;;5017491;28;20821;-84
2024/03/31 16:59:57;;;;;;;1.67;1.00;;;25.80;59.50;;;;;;5017223;28;20446;-83
2024/03/31 17:02:24;;;;;;;3.53;1.20;;;25.80;59.50;;;;;;5017149;28;20713;-84
2024/03/31 17:04:51;;;;;;;3.10;1.30;;;25.80;59.50;;;;;;5017282;28;20459;-86
2024/03/31 17:07:17;;;;;;;3.87;1.37;;;25.70;58.60;;;;;;5017029;28;20451;-85
2024/03/31 17:09:44;;;;;;;3.10;1.33;;;25.70;57.80;;;;;;5016861;28;20819;-84
2024/03/31 17:12:11;;;;;;;6.90;1.70;;;25.50;58.00;;;;;;5016398;28;20435;-84
2024/03/31 17:14:38;;;;;;;1.90;1.10;;;25.40;58.90;;;;;;5014467;28;20471;-85
2024/03/31 17:17:05;;;;;;;5.90;1.23;;;25.40;59.40;;;;;;5017312;28;20462;-86
2024/03/31 17:19:32;;;;;;;4.27;1.50;;;25.40;59.40;;;;;;5017252;28;20450;-85
2024/03/31 17:21:58;;;;;;;2.27;1.20;;;25.40;59.50;;;;;;5017055;28;20442;-84
2024/03/31 17:24:25;;;;;;;3.73;1.10;;;25.40;59.60;;;;;;5016841;28;20455;-87
2024/03/31 17:26:51;;;;;;;3.63;1.33;;;25.30;59.60;;;;;;5017166;28;20202;-86
2024/03/31 17:29:19;;;;;;;3.70;1.53;;;25.30;59.70;;;;;;5017131;28;20443;-83
2024/03/31 17:31:45;;;;;;;3.80;1.30;;;25.30;59.80;;;;;;5024136;28;20219;-85
2024/03/31 17:34:11;;;;;;;4.33;1.33;;;25.30;59.70;;;;;;5040865;28;20542;-85
2024/03/31 17:36:37;;;;;;;3.73;1.50;;;25.30;59.90;;;;;;5037151;28;20224;-83
2024/03/31 17:39:05;;;;;;;2.30;1.30;;;25.20;59.90;;;;;;5016937;28;20465;-84
2024/03/31 17:41:31;;;;;;;2.93;1.40;;;25.20;59.70;;;;;;5017191;28;20201;-86
2024/03/31 17:43:58;;;;;;;2.63;1.33;;;25.20;59.70;;;;;;5016725;28;20439;-85
2024/03/31 17:46:27;;;;;;;2.50;1.20;;;25.20;59.70;;;;;;5017096;28;20956;-84
2024/03/31 17:48:54;;;;;;;11.67;1.70;;;25.20;59.90;;;;;;5017003;28;20942;-83
2024/03/31 17:51:21;;;;;;;3.43;1.20;;;25.20;59.80;;;;;;4997256;28;20428;-84
2024/03/31 17:56:32;;;;;;;3.87;1.30;;;25.20;59.80;;;;;;4998660;28;20412;-89
2024/03/31 17:59:00;;;;;;;3.73;1.40;;;25.20;59.10;;;;;;4996161;28;20446;-88
2024/03/31 18:01:28;;;;;;;4.73;1.17;;;25.20;58.90;;;;;;4998118;28;20970;-93
2024/03/31 18:03:54;;;;;;;3.03;1.63;;;25.20;58.90;;;;;;4997818;28;20533;-91
2024/03/31 18:19:34;;;;;;;1.80;1.00;;;25.10;58.80;;;;;;4917473;29;20423;-83
2024/03/31 18:22:00;;;;;;;3.70;1.10;;;25.10;59.10;;;;;;4921480;28;20440;-84
2024/03/31 18:24:27;;;;;;;2.70;1.13;;;25.20;59.50;;;;;;4974657;28;20452;-83
2024/03/31 18:26:52;;;;;;;3.20;1.20;;;25.20;59.60;;;;;;4990264;28;20200;-83
2024/03/31 18:29:19;;;;;;;6.27;1.50;;;25.20;59.50;;;;;;5015655;28;20449;-83
2024/03/31 18:31:45;;;;;;;4.53;1.40;;;25.20;59.50;;;;;;5015310;28;20238;-83
2024/03/31 18:34:13;;;;;;;3.60;1.83;;;25.20;59.50;;;;;;5015164;28;20977;-82
2024/03/31 18:36:40;;;;;;;3.37;1.40;;;25.20;59.50;;;;;;5015539;28;20275;-83
2024/03/31 18:39:07;;;;;;;2.63;1.10;;;25.20;59.60;;;;;;5015481;28;20505;-83
2024/03/31 18:41:32;;;;;;;3.20;1.27;;;25.20;59.60;;;;;;5015455;28;20907;-83
2024/03/31 18:43:59;;;;;;;5.93;1.80;;;25.20;59.60;;;;;;5015164;28;20502;-83
2024/03/31 18:46:25;;;;;;;3.00;1.30;;;25.30;59.60;;;;;;5015356;28;20204;-83
2024/03/31 18:48:51;;;;;;;2.60;1.10;;;25.40;59.70;;;;;;5015416;28;20794;-83
2024/03/31 18:51:18;;;;;;;11.13;1.20;;;25.20;59.60;;;;;;5015258;28;20207;-83
2024/03/31 18:53:48;;;;;;;2.27;1.43;;;25.20;59.70;;;;;;5015376;28;20443;-83
2024/03/31 18:56:15;;;;;;;5.93;1.23;;;25.30;59.70;;;;;;5014865;28;20479;-85
2024/03/31 18:58:42;;;;;;;3.77;1.30;;;25.30;59.80;;;;;;5015314;28;20455;-83
2024/03/31 19:01:09;;;;;;;6.90;1.37;;;25.30;59.70;;;;;;5015311;28;20435;-83
2024/03/31 19:03:37;;;;;;;3.90;1.57;;;25.30;59.70;;;;;;5015398;28;20439;-84
2024/03/31 19:06:05;;;;;;;1.67;1.00;;;25.30;59.70;;;;;;5015457;28;20439;-84
2024/03/31 19:08:32;;;;;;;3.07;0.90;;;25.40;59.70;;;;;;5014440;28;20449;-84
2024/03/31 19:11:00;;;;;;;3.50;1.00;;;25.30;59.60;;;;;;5014974;28;20454;-85
2024/03/31 19:13:27;;;;;;;3.73;1.30;;;25.40;59.70;;;;;;5014785;28;20470;-84
2024/03/31 19:15:53;;;;;;;2.03;1.33;;;25.40;59.70;;;;;;5014542;28;20486;-84
2024/03/31 19:18:19;;;;;;;1.90;1.10;;;25.50;59.80;;;;;;5014868;28;20513;-84
2024/03/31 19:20:45;;;;;;;2.47;1.30;;;25.40;59.70;;;;;;5014992;28;20449;-83
2024/03/31 19:23:12;;;;;;;2.77;1.30;;;25.40;59.70;;;;;;5014482;28;20447;-84
2024/03/31 19:25:38;;;;;;;2.10;1.10;;;25.40;59.70;;;;;;5015105;28;20192;-83
2024/03/31 19:28:06;;;;;;;4.37;1.40;;;25.50;59.70;;;;;;5014399;28;20443;-83
2024/03/31 19:30:32;;;;;;;2.10;1.23;;;25.50;59.80;;;;;;5014433;28;20204;-84
2024/03/31 19:32:59;;;;;;;3.13;1.30;;;25.50;59.70;;;;;;5014168;28;20491;-84
2024/03/31 19:35:25;;;;;;;4.60;1.40;;;25.50;59.60;;;;;;5014171;28;20503;-83
2024/03/31 19:37:54;;;;;;;2.07;1.17;;;25.50;59.60;;;;;;5014699;28;20782;-83
2024/03/31 19:40:20;;;;;;;1.80;1.20;;;25.60;59.70;;;;;;5014693;28;20196;-84
2024/03/31 19:42:46;;;;;;;2.47;1.30;;;25.60;59.70;;;;;;5014024;28;20446;-84
2024/03/31 19:45:14;;;;;;;2.20;1.43;;;25.60;59.70;;;;;;5014210;28;20204;-82
2024/03/31 19:47:40;;;;;;;2.10;1.20;;;25.60;59.70;;;;;;5014021;28;20960;-82
2024/03/31 19:50:06;;;;;;;2.10;1.27;;;25.60;59.80;;;;;;5014234;28;20441;-82
2024/03/31 19:52:33;;;;;;;2.23;1.20;;;25.60;59.80;;;;;;5013789;28;20522;-82
2024/03/31 19:55:00;;;;;;;2.67;1.10;;;25.60;59.80;;;;;;5013731;28;20471;-83
2024/03/31 19:57:28;;;;;;;3.50;1.20;;;25.60;59.70;;;;;;5019084;28;20473;-83
2024/03/31 19:59:53;;;;;;;3.20;1.23;;;25.60;59.70;;;;;;5014172;28;20522;-82
2024/03/31 20:02:21;;;;;;;4.37;1.30;;;25.60;59.70;;;;;;5014040;28;20551;-84
2024/03/31 20:04:47;;;;;;;2.70;1.30;;;25.60;59.70;;;;;;5014332;28;20211;-84
2024/03/31 20:07:14;;;;;;;2.13;1.20;;;25.60;59.70;;;;;;5014443;28;20431;-85
2024/03/31 20:09:40;;;;;;;3.40;1.10;;;25.60;59.70;;;;;;5014091;28;20202;-83
2024/03/31 20:12:07;;;;;;;4.23;1.30;;;25.60;59.80;;;;;;5013960;28;20435;-83
2024/03/31 20:14:33;;;;;;;2.87;1.30;;;25.60;59.80;;;;;;5013926;28;20679;-83
2024/03/31 20:17:00;;;;;;;4.93;2.00;;;25.50;59.70;;;;;;5014117;28;20455;-85
2024/03/31 20:19:27;;;;;;;2.87;1.43;;;25.60;59.90;;;;;;5014329;28;20283;-84
2024/03/31 20:21:54;;;;;;;3.03;1.60;;;25.50;59.80;;;;;;5013243;28;20550;-84
2024/03/31 20:24:19;;;;;;;2.23;1.10;;;25.60;59.80;;;;;;5013615;28;21270;-83
2024/03/31 20:26:46;;;;;;;1.90;1.20;;;25.60;59.80;;;;;;5013730;28;20457;-83
2024/03/31 20:29:12;;;;;;;2.77;1.10;;;25.60;59.80;;;;;;5014916;28;20208;-85
2024/03/31 20:31:39;;;;;;;2.37;1.00;;;25.60;60.50;;;;;;5018407;28;20471;-83
2024/03/31 20:34:05;;;;;;;2.77;1.13;;;25.60;59.80;;;;;;5019326;28;20648;-86
2024/03/31 20:36:33;;;;;;;3.53;1.60;;;25.60;59.70;;;;;;5025524;28;20501;-86
2024/03/31 20:38:59;;;;;;;3.80;1.80;;;25.60;59.60;;;;;;5033484;28;20188;-82
2024/03/31 20:41:25;;;;;;;3.20;1.30;;;25.60;59.60;;;;;;5028945;28;20495;-85
2024/03/31 20:43:52;;;;;;;1.60;0.90;;;25.60;59.70;;;;;;5038036;28;20203;-85
2024/03/31 20:46:20;;;;;;;2.33;1.33;;;25.60;59.60;;;;;;5020026;28;20446;-84
2024/03/31 20:48:45;;;;;;;2.63;1.20;;;25.60;59.60;;;;;;5014429;28;20470;-85
2024/03/31 20:51:14;;;;;;;2.30;1.43;;;25.60;59.50;;;;;;5016122;28;20443;-83
2024/03/31 20:53:43;;;;;;;6.30;1.17;;;25.60;59.50;;;;;;5023342;28;20664;-83
2024/03/31 20:56:25;;;;;;;1.87;1.10;;;25.80;59.60;;;;;;5023709;28;20490;-85
2024/03/31 20:58:54;;;;;;;5.50;1.53;;;25.70;59.50;;;;;;5027367;28;20437;-85
2024/03/31 21:01:20;;;;;;;3.70;1.40;;;25.70;59.40;;;;;;5021081;28;20462;-85
2024/03/31 21:03:50;;;;;;;1.90;1.30;;;25.60;59.30;;;;;;5017647;28;20443;-85
2024/03/31 21:06:18;;;;;;;2.83;1.40;;;25.60;59.30;;;;;;5015024;28;20471;-85
2024/03/31 21:08:47;;;;;;;2.47;1.40;;;25.60;59.30;;;;;;5017100;28;20440;-85
2024/03/31 21:11:15;;;;;;;2.50;1.30;;;25.70;59.40;;;;;;5018117;28;20477;-85
2024/03/31 21:13:44;;;;;;;2.30;1.53;;;25.60;59.20;;;;;;5016017;28;20584;-85
2024/03/31 21:16:18;;;;;;;2.50;1.43;;;25.80;59.30;;;;;;5020991;28;20902;-85
2024/03/31 21:18:45;;;;;;;2.90;1.50;;;25.70;59.30;;;;;;5017371;28;20506;-85
2024/03/31 21:21:16;;;;;;;1.73;1.10;;;25.70;59.20;;;;;;5016586;28;20447;-86
2024/03/31 21:23:42;;;;;;;2.70;1.23;;;25.70;59.20;;;;;;5017249;28;20443;-85
2024/03/31 21:26:10;;;;;;;2.47;1.20;;;25.70;59.10;;;;;;5016924;28;20462;-85
2024/03/31 21:28:36;;;;;;;2.23;1.47;;;25.70;59.10;;;;;;5016302;28;20223;-85
2024/03/31 21:31:05;;;;;;;2.50;1.20;;;25.70;59.10;;;;;;5016711;28;20439;-85
2024/03/31 21:33:31;;;;;;;2.40;1.20;;;25.70;59.10;;;;;;5019166;28;20196;-85
2024/03/31 21:35:57;;;;;;;2.00;1.30;;;25.60;59.00;;;;;;5020484;28;20491;-85
2024/03/31 21:38:23;;;;;;;2.40;1.23;;;25.60;59.10;;;;;;5020169;28;20439;-85
2024/03/31 21:40:50;;;;;;;2.17;1.30;;;25.60;59.10;;;;;;5020011;28;20462;-84
2024/03/31 21:43:17;;;;;;;2.27;1.00;;;25.60;59.00;;;;;;5017058;28;20192;-86
2024/03/31 21:45:52;;;;;;;2.13;1.20;;;25.60;59.10;;;;;;5016970;28;20443;-85
2024/03/31 21:48:18;;;;;;;2.20;1.47;;;25.60;59.00;;;;;;5016753;28;20436;-85
2024/03/31 21:50:51;;;;;;;2.20;1.10;;;25.60;59.00;;;;;;5016597;28;20794;-85
2024/03/31 21:53:17;;;;;;;2.37;1.30;;;25.60;59.10;;;;;;5016550;28;20199;-86
2024/03/31 21:55:51;;;;;;;2.30;1.20;;;25.60;59.00;;;;;;5016177;28;20483;-85
2024/03/31 21:58:18;;;;;;;2.67;1.10;;;25.60;59.00;;;;;;5016751;28;20218;-85
2024/03/31 22:00:44;;;;;;;2.00;1.30;;;25.60;59.00;;;;;;5016534;28;20960;-85
2024/03/31 22:03:10;;;;;;;1.90;1.20;;;25.60;59.00;;;;;;5016137;28;20459;-85
2024/03/31 22:05:37;;;;;;;2.40;1.30;;;25.50;59.00;;;;;;5016270;28;20443;-85
2024/03/31 22:08:04;;;;;;;2.43;1.20;;;25.50;58.90;;;;;;5016065;28;20192;-85
2024/03/31 22:10:30;;;;;;;2.30;1.30;;;25.50;59.00;;;;;;5016428;28;20443;-85
2024/03/31 22:12:56;;;;;;;2.50;1.10;;;25.50;58.90;;;;;;5016051;28;20918;-85
2024/03/31 22:15:25;;;;;;;2.17;1.30;;;25.50;59.00;;;;;;5015963;28;20479;-85
2024/03/31 22:17:50;;;;;;;2.07;1.00;;;25.50;59.00;;;;;;5016140;28;20222;-85
2024/03/31 22:20:17;;;;;;;1.87;1.03;;;25.50;58.90;;;;;;5015988;28;20530;-85
2024/03/31 22:22:43;;;;;;;2.20;1.43;;;25.40;58.90;;;;;;5015950;28;20643;-85
2024/03/31 22:25:09;;;;;;;1.60;0.90;;;25.40;59.00;;;;;;5016259;28;20447;-85
2024/03/31 22:27:35;;;;;;;2.10;1.30;;;25.40;58.90;;;;;;5015619;28;20539;-85
2024/03/31 22:30:02;;;;;;;1.70;1.00;;;25.40;59.00;;;;;;5016017;28;20494;-85
2024/03/31 22:32:29;;;;;;;2.20;1.23;;;25.40;58.90;;;;;;5015490;28;20212;-85
2024/03/31 22:34:56;;;;;;;2.47;1.27;;;25.40;58.90;;;;;;5015465;28;20796;-85